Taylor Fork

This weather station provides wind speed, gust or max wind speed, and wind direction at 9460 ft. near Pika Point above Sunlight Basin.  

This data can be used with temperature and precipitation data from the Carrot Basin SNOTEL site. If the data below is not displayed or up to date, view data here.

This weather station was purchased by the Friends of the Avalanche Center.

Elevation
9460ft
Jump to table bottom
Date Time Temperature
deg F
RH, % Wind Speed Wind Gust Wind Direction
01/19/21 00:00 8.8 90 5 13 NW - 336
01/18/21 23:00 8.7 90 6 14 NW - 334
01/18/21 22:00 9.0 90 7 16 NW - 333
01/18/21 21:00 9.4 90 9 20 NW - 334
01/18/21 20:00 9.7 90 10 22 NW - 334
01/18/21 19:00 10.0 90 7 16 NW - 334
01/18/21 18:00 10.2 90 8 17 NW - 331
01/18/21 17:00 10.8 91 10 21 NW - 331
01/18/21 16:00 11.7 91 9 21 NW - 327
01/18/21 15:00 13.6 91 8 24 NW - 333
01/18/21 14:00 12.0 90 13 25 NW - 323
01/18/21 13:00 13.0 91 12 23 NW - 314
01/18/21 12:00 12.1 91 9 17 NW - 314
01/18/21 11:00 11.2 90 12 21 NW - 305
01/18/21 10:00 10.1 90 12 21 NW - 314
01/18/21 09:00 9.2 90 13 26 NW - 312
01/18/21 08:00 9.4 90 12 22 NW - 310
01/18/21 07:00 9.3 90 11 18 NW - 309
01/18/21 06:00 9.5 90 13 23 NW - 309
01/18/21 05:00 9.7 90 16 27 NW - 313
01/18/21 04:00 9.8 90 19 32 NW - 310
01/18/21 03:00 10.3 90 16 27 NW - 307
01/18/21 02:00 11.0 86 19 30 NW - 305
01/18/21 01:00 12.0 78 22 37 NW - 302
01/18/21 00:00 12.6 76 27 48 NW - 299
01/17/21 23:00 13.0 73 27 47 NW - 299
01/17/21 22:00 14.1 68 33 58 NW - 300
01/17/21 21:00 15.3 75 30 55 NW - 307
01/17/21 20:00 16.5 77 25 51 NW - 306
01/17/21 19:00 17.2 78 23 46 NW - 305
01/17/21 18:00 19.6 82 23 51 NW - 302
01/17/21 17:00 19.9 94 25 53 NW - 293
01/17/21 16:00 22.0 86 31 62 W - 279
01/17/21 15:00 22.6 92 29 62 W - 284
01/17/21 14:00 22.0 94 25 41 W - 268
01/17/21 13:00 17.7 92 16 26 SW - 241
01/17/21 12:00 17.2 89 16 28 S - 190
01/17/21 11:00 15.9 90 13 23 S - 202
01/17/21 10:00 18.9 87 10 17 SW - 223
01/17/21 09:00 18.9 73 11 25 W - 254
01/17/21 08:00 18.0 69 14 22 W - 260
01/17/21 07:00 20.7 75 17 29 W - 264
01/17/21 06:00 18.8 68 14 26 W - 261
01/17/21 05:00 20.7 49 13 22 W - 274
01/17/21 04:00 20.2 42 21 36 W - 267
01/17/21 03:00 16.4 54 19 31 W - 270
01/17/21 02:00 19.8 46 19 41 W - 277
01/17/21 01:00 18.0 71 13 24 W - 286
01/17/21 00:00 16.3 91 9 16 NW - 305
01/16/21 23:00 18.1 76 16 31 NW - 293